SBCZ

Details ICAO SBCZ (CZS)
Name CRUZEIRO DO SUL
Region Brazil
Timezone America/Rio_Branco (UTC-5.0)
Plans Departing 13
Arriving 8
Stats Elevation 637 ft / 194 m (AMSL)
Location -7.599906° -72.769491°
Runways 1
Magnetic Variation 6.266° W
Sunrise 2017-12-14 10:30:27 UTC / 2017-12-14 05:30:27 Local
Sunset 2017-12-14 23:04:03 UTC / 2017-12-14 18:04:03 Local
Advertisement - Login to hide

Runways

ID Width Length Bearing (true) Bearing (mag) Surface Threshold Offset Overrun Length
10 148 ft / 45 m 7,867 ft / 2,398 m 92.99° 99.26° Asphalt 0 ft / 0 m 200 ft / 61 m
28 148 ft / 45 m 7,867 ft / 2,398 m 272.98° 279.25° Asphalt 0 ft / 0 m 200 ft / 61 m

Map

Weather


0- 5 10 15 20 25 30 35+ Temperature / ° C

Clouds and Precipitation
Forecast for 2017-12-14 06:00 UTC. Updated 2 hours ago

Ground ~20,000 ft ~40,000 ft Winds

METAR

SBCZ 140630Z 00000KT CAVOK 23/23 Q1009

TAF

Not found

Frequencies

Tower 125.70 MHz AFIS
Warning: Do not use this data for real-world aviation or navigation. No guarantee of current accuracy is given.